createdAt,value
2019-03-31T00:02:26.086Z,36.53
2019-03-31T00:05:15.432Z,36.53
2019-03-31T00:08:04.598Z,35.43
2019-03-31T00:10:53.762Z,31.68
2019-03-31T00:13:43.340Z,31.87
2019-03-31T00:16:32.419Z,31.73
2019-03-31T00:19:21.803Z,32.30
2019-03-31T00:22:10.678Z,31.20
2019-03-31T00:25:00.001Z,35.55
2019-03-31T00:27:49.299Z,30.00
2019-03-31T00:30:38.253Z,34.15
2019-03-31T00:33:27.700Z,28.45
2019-03-31T00:36:17.160Z,28.67
2019-03-31T00:39:08.932Z,26.35
2019-03-31T00:41:57.626Z,29.17
2019-03-31T00:44:47.017Z,26.70
2019-03-31T00:47:37.045Z,23.85
2019-03-31T00:50:26.299Z,21.15
2019-03-31T00:53:15.683Z,20.23
2019-03-31T00:56:04.914Z,19.90
2019-03-31T00:58:54.273Z,21.68
2019-03-31T01:01:48.620Z,21.70
2019-03-31T01:04:37.956Z,17.80
2019-03-31T01:07:28.060Z,15.58
2019-03-31T01:10:16.954Z,19.77
2019-03-31T01:13:07.109Z,19.62
2019-03-31T01:15:58.491Z,16.93
2019-03-31T01:18:48.106Z,19.33
2019-03-31T01:21:37.272Z,16.25
2019-03-31T01:24:26.629Z,15.95
2019-03-31T01:27:17.698Z,14.85
2019-03-31T01:30:10.034Z,17.07
2019-03-31T01:32:59.776Z,19.42
2019-03-31T01:35:49.239Z,12.60
2019-03-31T01:38:38.775Z,13.58
2019-03-31T01:41:27.931Z,12.45
2019-03-31T01:44:17.080Z,13.40
2019-03-31T01:47:07.604Z,12.90
2019-03-31T01:49:57.138Z,16.37
2019-03-31T01:52:46.303Z,13.25
2019-03-31T01:55:34.984Z,13.93
2019-03-31T01:58:24.132Z,15.18
2019-03-31T02:01:14.742Z,12.78
2019-03-31T02:04:03.892Z,12.28
2019-03-31T02:06:52.904Z,12.75
2019-03-31T02:09:42.231Z,12.98
2019-03-31T02:12:31.594Z,12.35
2019-03-31T02:15:21.292Z,14.80
2019-03-31T02:18:10.196Z,13.20
2019-03-31T02:20:59.402Z,12.20
2019-03-31T02:23:48.543Z,11.90
2019-03-31T02:26:37.839Z,13.65
2019-03-31T02:29:27.265Z,13.03
2019-03-31T02:32:24.195Z,10.67
2019-03-31T02:35:07.915Z,12.95
2019-03-31T02:37:56.366Z,12.63
2019-03-31T02:40:45.316Z,15.35
2019-03-31T02:43:34.141Z,11.28
2019-03-31T02:46:23.349Z,11.12
2019-03-31T02:49:12.624Z,10.93
2019-03-31T02:52:02.102Z,11.75
2019-03-31T02:54:51.293Z,11.57
2019-03-31T02:57:41.659Z,11.15
2019-03-31T03:00:31.410Z,10.95
2019-03-31T03:03:21.115Z,10.93
2019-03-31T03:06:13.149Z,12.20
2019-03-31T03:09:05.755Z,9.60
2019-03-31T03:11:56.815Z,11.22
2019-03-31T03:14:48.960Z,10.18
2019-03-31T03:17:38.622Z,11.00
2019-03-31T03:20:27.533Z,9.70
2019-03-31T03:23:16.852Z,9.60
2019-03-31T03:26:05.663Z,8.00
2019-03-31T03:28:54.984Z,8.73
2019-03-31T03:31:43.804Z,7.55
2019-03-31T03:34:34.106Z,9.45
2019-03-31T03:37:23.578Z,7.60
2019-03-31T03:40:12.284Z,6.80
2019-03-31T03:43:01.649Z,7.90
2019-03-31T03:45:50.962Z,7.55
2019-03-31T03:48:40.482Z,6.83
2019-03-31T03:51:29.666Z,8.75
2019-03-31T03:54:18.819Z,7.90
2019-03-31T03:57:08.054Z,7.45
2019-03-31T03:59:57.350Z,7.78
2019-03-31T04:02:46.060Z,6.60
2019-03-31T04:05:35.075Z,6.50
2019-03-31T04:08:24.464Z,5.60
2019-03-31T04:11:21.551Z,6.47
2019-03-31T04:14:11.507Z,5.90
2019-03-31T04:17:00.567Z,5.13
2019-03-31T04:19:50.642Z,5.40
2019-03-31T04:22:39.385Z,5.55
2019-03-31T04:25:28.774Z,5.05
2019-03-31T04:28:17.896Z,4.50
2019-03-31T04:31:07.034Z,4.75
2019-03-31T04:33:56.471Z,4.53
2019-03-31T04:36:45.435Z,3.90
2019-03-31T04:39:34.221Z,3.07
2019-03-31T04:42:23.458Z,2.80
2019-03-31T04:45:13.047Z,3.42
2019-03-31T04:48:02.308Z,3.05
2019-03-31T04:50:52.227Z,3.17
2019-03-31T04:53:42.023Z,2.80
2019-03-31T04:56:31.659Z,3.50
2019-03-31T04:59:20.547Z,2.87
2019-03-31T05:02:09.590Z,2.10
2019-03-31T05:04:58.380Z,2.27
2019-03-31T05:07:47.912Z,3.05
2019-03-31T05:10:37.254Z,2.10
2019-03-31T05:13:26.821Z,2.52
2019-03-31T05:16:15.600Z,3.10
2019-03-31T05:19:04.635Z,3.00
2019-03-31T05:21:53.737Z,2.20
2019-03-31T05:24:43.066Z,2.05
2019-03-31T05:27:32.194Z,2.30
2019-03-31T05:30:21.016Z,3.98
2019-03-31T05:33:10.104Z,3.10
2019-03-31T05:35:59.164Z,2.50
2019-03-31T05:38:48.749Z,2.50
2019-03-31T05:41:38.194Z,2.35
2019-03-31T05:44:27.896Z,2.10
2019-03-31T05:47:16.634Z,2.50
2019-03-31T05:50:07.700Z,2.60
2019-03-31T05:52:56.411Z,2.47
2019-03-31T05:55:45.444Z,2.75
2019-03-31T05:58:34.512Z,2.45
2019-03-31T06:01:23.924Z,2.40
2019-03-31T06:04:12.870Z,2.22
2019-03-31T06:07:02.154Z,2.73
2019-03-31T06:09:50.990Z,2.50
2019-03-31T06:18:16.684Z,2.40
2019-03-31T06:29:31.726Z,2.62
2019-03-31T06:46:24.940Z,3.17
2019-03-31T06:49:14.136Z,3.80
2019-03-31T06:52:03.005Z,3.13
2019-03-31T06:54:52.569Z,3.30
2019-03-31T06:57:41.940Z,3.10
2019-03-31T07:00:30.630Z,3.42
2019-03-31T07:03:19.993Z,2.80
2019-03-31T07:08:57.902Z,3.30
2019-03-31T07:11:47.092Z,2.95
2019-03-31T07:14:36.340Z,3.47
2019-03-31T07:17:25.759Z,3.30
2019-03-31T07:20:16.830Z,3.42
2019-03-31T07:23:05.504Z,2.95
2019-03-31T07:25:54.334Z,3.22
2019-03-31T07:28:43.628Z,3.20
2019-03-31T07:31:33.121Z,2.85
2019-03-31T07:34:25.650Z,3.02
2019-03-31T07:37:13.565Z,3.50
2019-03-31T07:40:03.109Z,3.00
2019-03-31T07:42:51.979Z,3.02
2019-03-31T07:45:41.183Z,3.08
2019-03-31T07:48:30.245Z,7.72
2019-03-31T07:51:19.913Z,20.57
2019-03-31T07:54:09.157Z,3.27
2019-03-31T07:56:58.750Z,3.25
2019-03-31T07:59:47.269Z,20.70
2019-03-31T08:02:36.575Z,2.95
2019-03-31T08:05:32.861Z,2.77
2019-03-31T08:08:15.842Z,3.70
2019-03-31T08:11:05.214Z,2.20
2019-03-31T08:13:55.392Z,2.40
2019-03-31T08:16:45.281Z,4.65
2019-03-31T08:19:34.644Z,3.10
2019-03-31T08:22:24.223Z,2.62
2019-03-31T08:25:16.141Z,1.90
2019-03-31T08:28:05.218Z,2.92
2019-03-31T08:36:31.197Z,2.22
2019-03-31T08:39:20.260Z,1.75
2019-03-31T08:42:09.738Z,1.98
2019-03-31T08:44:58.661Z,2.17
2019-03-31T08:47:48.160Z,1.45
2019-03-31T08:50:37.155Z,1.75
2019-03-31T08:53:26.196Z,2.45
2019-03-31T08:56:15.049Z,2.17
2019-03-31T08:59:04.149Z,2.47
2019-03-31T09:01:53.799Z,2.00
2019-03-31T09:04:43.249Z,1.85
2019-03-31T09:07:32.410Z,2.55
2019-03-31T09:10:21.440Z,2.60
2019-03-31T09:13:10.766Z,2.30
2019-03-31T09:15:59.825Z,2.20
2019-03-31T09:18:49.282Z,1.50
2019-03-31T09:52:30.136Z,2.00
2019-03-31T09:55:22.856Z,2.30
2019-03-31T09:58:09.876Z,2.27
2019-03-31T10:00:59.107Z,1.55
2019-03-31T10:15:00.991Z,2.10
2019-03-31T10:20:38.086Z,2.00
2019-03-31T10:23:27.454Z,1.80
2019-03-31T10:26:31.070Z,2.05
2019-03-31T10:29:07.937Z,2.60
2019-03-31T10:37:34.620Z,2.60
2019-03-31T10:40:23.664Z,2.05
2019-03-31T10:43:12.651Z,2.60
2019-03-31T10:46:01.963Z,2.27
2019-03-31T10:48:51.667Z,2.42
2019-03-31T10:51:41.129Z,3.83
2019-03-31T10:54:29.824Z,3.08
2019-03-31T10:57:19.199Z,2.75
2019-03-31T11:00:14.632Z,1.92
2019-03-31T11:03:04.834Z,2.55
2019-03-31T11:05:53.582Z,3.40
2019-03-31T20:39:56.087Z,3.50
2019-03-31T21:30:28.575Z,2.27
2019-03-31T21:33:17.475Z,2.17
2019-03-31T21:36:06.699Z,3.62
2019-03-31T21:38:55.587Z,5.12
2019-03-31T21:41:44.421Z,16.17
2019-03-31T21:44:34.004Z,3.90
2019-03-31T21:47:22.513Z,13.25
2019-03-31T21:50:12.431Z,2.40
2019-03-31T21:53:01.430Z,3.10
2019-03-31T21:55:50.667Z,2.75
2019-03-31T21:58:40.218Z,2.08
2019-03-31T22:01:30.953Z,4.03
2019-03-31T22:04:20.118Z,2.30
2019-03-31T22:07:08.866Z,2.62
2019-03-31T22:09:58.340Z,2.00
2019-03-31T22:12:47.393Z,4.95
2019-03-31T22:15:36.254Z,4.80
2019-03-31T22:18:25.760Z,5.70
2019-03-31T22:21:15.426Z,2.05
2019-03-31T22:24:04.214Z,1.90
2019-03-31T22:26:53.751Z,2.33
2019-03-31T22:29:43.043Z,3.95
2019-03-31T22:32:32.189Z,2.37
2019-03-31T22:35:21.259Z,6.17
2019-03-31T22:38:10.216Z,3.10
2019-03-31T22:40:59.906Z,2.75
2019-03-31T22:43:50.406Z,2.15
2019-03-31T22:46:53.408Z,3.58
2019-03-31T22:49:30.253Z,3.83
2019-03-31T22:52:19.751Z,2.98
2019-03-31T22:55:09.435Z,2.85
2019-03-31T23:03:35.128Z,2.72
2019-03-31T23:23:13.526Z,2.10
2019-03-31T23:26:02.591Z,2.27
2019-03-31T23:28:51.845Z,2.22
2019-03-31T23:31:40.738Z,2.77
2019-03-31T23:34:30.088Z,2.75
2019-03-31T23:37:19.039Z,2.05
2019-03-31T23:40:08.934Z,2.10
2019-03-31T23:42:58.177Z,2.12
2019-03-31T23:45:47.974Z,2.37
2019-03-31T23:48:36.477Z,1.85
2019-03-31T23:51:25.903Z,1.98
2019-03-31T23:54:15.362Z,1.80
2019-03-31T23:57:04.759Z,1.75
2019-03-31T23:59:53.444Z,1.92
